createdAt,value
2023-03-26T00:01:51.815Z,6.40
2023-03-26T00:04:19.872Z,4.75
2023-03-26T00:06:49.171Z,3.88
2023-03-26T00:09:17.896Z,8.50
2023-03-26T00:11:48.625Z,4.95
2023-03-26T00:14:18.007Z,6.57
2023-03-26T00:16:47.656Z,3.35
2023-03-26T00:19:15.769Z,3.55
2023-03-26T00:21:43.342Z,3.15
2023-03-26T00:24:16.279Z,2.75
2023-03-26T00:26:45.014Z,9.15
2023-03-26T00:29:14.059Z,5.25
2023-03-26T00:31:46.742Z,4.90
2023-03-26T00:34:18.653Z,5.25
2023-03-26T00:36:47.320Z,3.75
2023-03-26T00:39:15.403Z,1.88
2023-03-26T00:41:43.426Z,3.88
2023-03-26T00:44:11.770Z,5.68
2023-03-26T00:46:39.693Z,7.13
2023-03-26T00:49:11.056Z,6.82
2023-03-26T00:51:39.405Z,5.03
2023-03-26T00:54:09.857Z,8.75
2023-03-26T00:56:39.017Z,4.43
2023-03-26T00:59:06.659Z,6.95
2023-03-26T01:01:34.173Z,2.53
2023-03-26T01:04:31.655Z,5.85
2023-03-26T01:07:03.064Z,5.85
2023-03-26T01:09:35.159Z,5.20
2023-03-26T01:12:05.073Z,5.18
2023-03-26T01:14:32.826Z,4.18
2023-03-26T01:17:03.203Z,6.93
2023-03-26T01:19:52.093Z,7.80
2023-03-26T01:22:22.759Z,4.10
2023-03-26T01:24:56.469Z,4.80
2023-03-26T01:27:35.949Z,6.07
2023-03-26T01:30:07.340Z,3.55
2023-03-26T01:32:58.390Z,3.13
2023-03-26T01:35:35.471Z,4.82
2023-03-26T01:38:11.006Z,4.32
2023-03-26T01:41:00.238Z,2.80
2023-03-26T01:43:36.608Z,4.22
2023-03-26T01:46:08.290Z,7.35
2023-03-26T01:48:47.010Z,3.72
2023-03-26T01:51:26.299Z,6.10
2023-03-26T01:53:55.439Z,2.78
2023-03-26T01:56:33.783Z,2.85
2023-03-26T01:59:16.945Z,1.85
2023-03-26T02:02:12.085Z,4.13
2023-03-26T02:05:22.206Z,3.17
2023-03-26T02:07:58.629Z,4.55
2023-03-26T02:10:29.890Z,3.97
2023-03-26T02:12:58.903Z,3.25
2023-03-26T02:15:26.521Z,3.50
2023-03-26T02:17:59.834Z,2.15
2023-03-26T02:20:30.227Z,2.53
2023-03-26T02:22:58.064Z,2.60
2023-03-26T02:25:26.085Z,7.28
2023-03-26T02:27:54.710Z,4.57
2023-03-26T02:30:29.855Z,4.85
2023-03-26T02:33:00.292Z,4.38
2023-03-26T02:35:36.159Z,3.60
2023-03-26T02:38:04.015Z,3.72
2023-03-26T02:40:31.462Z,2.42
2023-03-26T02:42:59.576Z,3.65
2023-03-26T02:45:32.790Z,4.53
2023-03-26T02:48:06.371Z,3.53
2023-03-26T02:50:46.663Z,3.97
2023-03-26T02:53:30.812Z,2.25
2023-03-26T02:56:17.128Z,3.72
2023-03-26T02:58:58.483Z,2.90
2023-03-26T03:01:26.199Z,3.75
2023-03-26T03:03:55.799Z,2.60
2023-03-26T03:06:38.455Z,3.20
2023-03-26T03:09:08.640Z,1.33
2023-03-26T03:11:37.246Z,3.08
2023-03-26T03:14:06.022Z,2.17
2023-03-26T03:16:34.557Z,3.22
2023-03-26T03:19:10.828Z,1.42
2023-03-26T03:21:40.409Z,2.17
2023-03-26T03:24:09.587Z,5.97
2023-03-26T03:26:42.497Z,3.13
2023-03-26T03:29:28.639Z,3.00
2023-03-26T03:32:00.555Z,4.13
2023-03-26T03:34:43.368Z,2.47
2023-03-26T03:37:11.162Z,3.22
2023-03-26T03:39:51.085Z,3.38
2023-03-26T03:42:21.727Z,2.65
2023-03-26T03:44:51.958Z,3.53
2023-03-26T03:47:39.835Z,3.65
2023-03-26T03:50:09.460Z,3.78
2023-03-26T03:52:39.888Z,3.40
2023-03-26T03:55:07.892Z,3.53
2023-03-26T03:57:43.115Z,3.20
2023-03-26T04:00:16.319Z,2.03
2023-03-26T04:02:46.369Z,2.70
2023-03-26T04:05:15.476Z,4.20
2023-03-26T04:07:49.036Z,5.03
2023-03-26T04:10:22.599Z,7.05
2023-03-26T04:13:25.885Z,3.83
2023-03-26T04:16:11.827Z,6.68
2023-03-26T04:18:40.120Z,4.78
2023-03-26T04:21:16.009Z,7.28
2023-03-26T04:23:45.888Z,7.72
2023-03-26T04:26:33.589Z,6.38
2023-03-26T04:29:13.068Z,8.15
2023-03-26T04:31:43.256Z,10.30
2023-03-26T04:34:24.601Z,3.35
2023-03-26T04:37:26.665Z,5.38
2023-03-26T04:40:12.365Z,2.88
2023-03-26T04:42:50.344Z,9.35
2023-03-26T04:45:40.819Z,6.47
2023-03-26T04:48:14.383Z,6.13
2023-03-26T04:50:43.221Z,9.32
2023-03-26T04:53:17.270Z,6.18
2023-03-26T04:56:58.482Z,4.05
2023-03-26T04:59:43.167Z,8.90
2023-03-26T05:02:14.377Z,8.30
2023-03-26T05:04:53.930Z,7.60
2023-03-26T05:07:24.280Z,5.65
2023-03-26T05:09:57.719Z,4.50
2023-03-26T05:12:42.261Z,6.05
2023-03-26T05:15:15.753Z,2.78
2023-03-26T05:17:52.254Z,5.78
2023-03-26T05:20:30.518Z,7.05
2023-03-26T05:22:58.361Z,3.40
2023-03-26T05:25:37.424Z,6.53
2023-03-26T05:28:11.864Z,8.30
2023-03-26T05:30:48.381Z,6.93
2023-03-26T05:33:16.555Z,6.22
2023-03-26T05:36:03.895Z,4.88
2023-03-26T05:38:34.280Z,6.18
2023-03-26T05:41:06.860Z,5.93
2023-03-26T05:43:36.471Z,5.95
2023-03-26T05:46:13.380Z,4.57
2023-03-26T05:48:41.245Z,4.82
2023-03-26T05:51:09.002Z,7.38
2023-03-26T05:53:41.996Z,6.82
2023-03-26T05:56:10.670Z,3.53
2023-03-26T05:58:57.442Z,5.60
2023-03-26T06:01:45.035Z,8.25
2023-03-26T06:04:13.849Z,7.45
2023-03-26T06:06:47.889Z,9.38
2023-03-26T06:09:15.768Z,8.80
2023-03-26T06:11:43.729Z,6.35
2023-03-26T06:14:11.394Z,7.40
2023-03-26T06:16:44.478Z,6.87
2023-03-26T06:19:22.119Z,6.63
2023-03-26T06:21:57.702Z,4.35
2023-03-26T06:24:45.131Z,6.75
2023-03-26T06:27:31.484Z,7.13
2023-03-26T06:30:26.774Z,12.88
2023-03-26T06:33:06.776Z,5.07
2023-03-26T06:35:43.004Z,3.53
2023-03-26T06:38:11.571Z,4.13
2023-03-26T06:40:39.346Z,4.18
2023-03-26T06:43:20.517Z,4.97
2023-03-26T06:45:52.175Z,4.20
2023-03-26T06:48:52.332Z,2.78
2023-03-26T06:51:22.426Z,5.40
2023-03-26T06:54:16.849Z,5.65
2023-03-26T06:56:45.192Z,5.78
2023-03-26T06:59:39.077Z,8.00
2023-03-26T07:02:25.080Z,6.63
2023-03-26T07:05:11.031Z,7.00
2023-03-26T07:07:57.692Z,7.03
2023-03-26T07:10:43.663Z,4.53
2023-03-26T07:13:29.834Z,4.82
2023-03-26T07:16:23.867Z,6.63
2023-03-26T07:19:23.579Z,5.18
2023-03-26T07:21:52.965Z,5.80
2023-03-26T07:24:39.026Z,4.35
2023-03-26T07:27:28.314Z,5.43
2023-03-26T07:30:09.342Z,4.80
2023-03-26T07:33:18.611Z,3.70
2023-03-26T07:36:08.214Z,5.28
2023-03-26T07:39:10.862Z,2.75
2023-03-26T07:42:24.581Z,4.07
2023-03-26T07:45:27.118Z,5.85
2023-03-26T07:48:28.289Z,2.63
2023-03-26T07:51:18.785Z,2.95
2023-03-26T07:54:10.827Z,3.95
2023-03-26T07:57:12.967Z,5.45
2023-03-26T08:00:05.262Z,6.20
2023-03-26T08:03:15.455Z,5.88
2023-03-26T08:06:22.469Z,4.45
2023-03-26T08:09:12.004Z,5.10
2023-03-26T08:12:04.754Z,7.25
2023-03-26T08:14:47.056Z,8.52
2023-03-26T08:17:34.985Z,4.53
2023-03-26T08:20:10.580Z,7.32
2023-03-26T08:22:43.438Z,5.65
2023-03-26T08:25:24.567Z,9.68
2023-03-26T08:28:12.875Z,5.32
2023-03-26T08:30:40.688Z,11.90
2023-03-26T08:33:22.548Z,8.25
2023-03-26T08:35:50.721Z,7.57
2023-03-26T08:38:20.241Z,3.50
2023-03-26T08:41:19.577Z,8.80
2023-03-26T08:43:50.044Z,6.45
2023-03-26T08:46:55.960Z,4.75
2023-03-26T08:49:44.780Z,5.93
2023-03-26T08:52:24.806Z,4.22
2023-03-26T08:55:03.991Z,5.35
2023-03-26T08:58:09.738Z,7.35
2023-03-26T09:00:57.743Z,6.43
2023-03-26T09:03:31.276Z,5.10
2023-03-26T09:06:37.467Z,7.13
2023-03-26T09:09:19.069Z,7.43
2023-03-26T09:12:20.027Z,5.40
2023-03-26T09:15:07.656Z,6.65
2023-03-26T09:17:37.860Z,5.55
2023-03-26T09:20:25.318Z,9.37
2023-03-26T09:23:15.122Z,5.78
2023-03-26T09:25:57.991Z,3.00
2023-03-26T09:28:56.068Z,4.47
2023-03-26T09:31:32.876Z,2.63
2023-03-26T09:34:28.323Z,4.57
2023-03-26T09:37:18.755Z,8.50
2023-03-26T09:40:15.727Z,4.93
2023-03-26T09:43:19.563Z,3.85
2023-03-26T09:46:19.270Z,4.18
2023-03-26T09:49:24.895Z,3.95
2023-03-26T09:52:23.255Z,5.35
2023-03-26T09:55:20.409Z,7.32
2023-03-26T09:58:11.457Z,4.32
2023-03-26T10:00:53.482Z,3.83
2023-03-26T10:03:32.484Z,6.18
2023-03-26T10:06:15.097Z,6.07
2023-03-26T10:09:15.650Z,8.85
2023-03-26T10:12:01.441Z,4.05
2023-03-26T10:15:01.641Z,11.80
2023-03-26T10:17:45.034Z,3.33
2023-03-26T10:20:50.559Z,2.63
2023-03-26T10:23:31.067Z,5.20
2023-03-26T10:26:25.041Z,5.10
2023-03-26T10:29:17.966Z,3.38
2023-03-26T10:31:51.665Z,3.20
2023-03-26T10:34:37.474Z,4.93
2023-03-26T10:37:19.524Z,4.78
2023-03-26T10:40:10.332Z,3.08
2023-03-26T10:42:53.633Z,3.30
2023-03-26T10:45:42.522Z,4.10
2023-03-26T10:48:24.557Z,3.10
2023-03-26T10:51:13.884Z,1.50
2023-03-26T10:53:50.371Z,3.22
2023-03-26T10:56:28.418Z,2.15
2023-03-26T10:58:57.133Z,10.90
2023-03-26T11:01:32.873Z,3.45
2023-03-26T11:04:11.083Z,2.33
2023-03-26T11:06:51.192Z,1.85
2023-03-26T11:09:44.978Z,2.10
2023-03-26T11:12:26.508Z,4.50
2023-03-26T11:15:13.671Z,1.27
2023-03-26T11:17:53.172Z,3.45
2023-03-26T11:20:24.476Z,2.28
2023-03-26T11:23:12.033Z,5.25
2023-03-26T11:25:57.874Z,4.45
2023-03-26T11:29:31.819Z,2.85
2023-03-26T11:32:21.282Z,2.65
2023-03-26T11:35:08.534Z,2.00
2023-03-26T11:37:42.893Z,2.95
2023-03-26T11:40:51.165Z,1.98
2023-03-26T11:44:25.244Z,3.50
2023-03-26T11:47:01.526Z,1.80
2023-03-26T11:49:29.591Z,4.35
2023-03-26T11:51:57.184Z,4.30
2023-03-26T11:54:24.601Z,6.03
2023-03-26T11:57:05.668Z,3.35
2023-03-26T11:59:56.492Z,5.40
2023-03-26T12:02:39.457Z,4.03
2023-03-26T12:05:29.590Z,2.03
2023-03-26T12:08:02.714Z,3.58
2023-03-26T12:10:41.455Z,3.87
2023-03-26T12:13:22.951Z,2.95
2023-03-26T12:15:50.449Z,4.53
2023-03-26T12:18:25.185Z,2.65
2023-03-26T12:21:17.085Z,3.63
2023-03-26T12:23:51.123Z,2.05
2023-03-26T12:26:36.070Z,2.58
2023-03-26T12:29:11.976Z,5.03
2023-03-26T12:31:55.076Z,3.17
2023-03-26T12:34:35.950Z,3.38
2023-03-26T12:37:05.856Z,2.10
2023-03-26T12:40:10.130Z,3.92
2023-03-26T12:44:44.496Z,2.25
2023-03-26T12:45:38.961Z,5.07
2023-03-26T12:48:08.053Z,3.25
2023-03-26T12:50:57.557Z,5.82
2023-03-26T12:53:48.960Z,4.93
2023-03-26T12:56:36.425Z,4.47
2023-03-26T12:59:46.850Z,2.85
2023-03-26T13:02:33.290Z,3.90
2023-03-26T13:05:30.154Z,2.42
2023-03-26T13:08:03.601Z,2.95
2023-03-26T13:10:58.397Z,3.15
2023-03-26T13:13:36.435Z,4.97
2023-03-26T13:16:53.306Z,4.25
2023-03-26T13:19:23.748Z,2.38
2023-03-26T13:21:58.728Z,3.35
2023-03-26T13:24:34.392Z,3.00
2023-03-26T13:27:09.796Z,4.40
2023-03-26T13:29:57.436Z,2.42
2023-03-26T13:32:52.202Z,5.30
2023-03-26T13:35:47.106Z,5.55
2023-03-26T13:38:36.072Z,6.35
2023-03-26T13:41:34.987Z,6.75
2023-03-26T13:44:08.529Z,6.75
2023-03-26T13:46:43.372Z,6.70
2023-03-26T13:49:15.721Z,5.25
2023-03-26T13:52:05.953Z,5.35
2023-03-26T13:54:44.260Z,4.70
2023-03-26T13:57:14.725Z,4.40
2023-03-26T13:59:57.526Z,4.15
2023-03-26T14:02:36.090Z,7.22
2023-03-26T14:05:06.403Z,4.38
2023-03-26T14:08:02.438Z,10.32
2023-03-26T14:10:40.589Z,6.38
2023-03-26T14:13:21.788Z,6.38
2023-03-26T14:15:49.275Z,7.43
2023-03-26T14:18:16.661Z,5.15
2023-03-26T14:21:15.600Z,5.47
2023-03-26T14:24:02.181Z,4.00
2023-03-26T14:27:05.633Z,5.93
2023-03-26T14:30:07.288Z,5.85
2023-03-26T14:32:53.214Z,3.45
2023-03-26T14:35:47.350Z,5.40
2023-03-26T14:38:38.201Z,7.97
2023-03-26T14:41:24.583Z,9.95
2023-03-26T14:44:24.343Z,6.60
2023-03-26T14:47:15.094Z,7.93
2023-03-26T14:50:04.088Z,4.75
2023-03-26T14:52:48.065Z,7.82
2023-03-26T14:55:52.305Z,10.48
2023-03-26T14:58:37.845Z,5.82
2023-03-26T15:01:25.344Z,13.18
2023-03-26T15:04:33.432Z,8.85
2023-03-26T15:07:38.340Z,7.75
2023-03-26T15:10:16.957Z,10.65
2023-03-26T15:13:19.806Z,5.82
2023-03-26T15:16:12.390Z,9.07
2023-03-26T15:19:13.438Z,7.63
2023-03-26T15:22:10.718Z,6.13
2023-03-26T15:25:10.953Z,3.65
2023-03-26T15:27:57.579Z,9.60
2023-03-26T15:31:06.701Z,5.95
2023-03-26T15:34:00.582Z,1.80
2023-03-26T15:36:44.790Z,2.30
2023-03-26T15:41:39.709Z,2.65
2023-03-26T15:44:43.779Z,2.40
2023-03-26T15:47:32.900Z,1.88
2023-03-26T15:50:14.408Z,2.45
2023-03-26T15:53:04.545Z,2.30
2023-03-26T15:55:40.391Z,1.33
2023-03-26T15:58:27.497Z,3.05
2023-03-26T16:01:04.380Z,3.60
2023-03-26T16:03:49.489Z,2.33
2023-03-26T16:06:22.769Z,4.13
2023-03-26T16:09:04.810Z,1.83
2023-03-26T16:11:51.010Z,2.80
2023-03-26T16:14:24.371Z,2.70
2023-03-26T16:16:58.120Z,4.15
2023-03-26T16:19:36.313Z,1.98
2023-03-26T16:22:07.798Z,3.50
2023-03-26T16:24:40.057Z,2.72
2023-03-26T16:27:32.267Z,2.63
2023-03-26T16:30:25.413Z,4.93
2023-03-26T16:32:56.373Z,4.05
2023-03-26T16:35:46.605Z,3.08
2023-03-26T16:38:16.291Z,2.08
2023-03-26T16:41:15.326Z,2.83
2023-03-26T16:44:10.692Z,5.25
2023-03-26T16:46:50.714Z,3.25
2023-03-26T16:49:26.828Z,2.65
2023-03-26T16:52:09.813Z,2.63
2023-03-26T16:55:04.302Z,2.40
2023-03-26T16:57:48.142Z,2.17
2023-03-26T17:00:23.720Z,2.80
2023-03-26T17:02:54.035Z,3.75
2023-03-26T17:05:37.975Z,4.65
2023-03-26T17:08:35.539Z,1.98
2023-03-26T17:11:28.229Z,3.20
2023-03-26T17:14:34.416Z,1.45
2023-03-26T17:17:23.452Z,3.47
2023-03-26T17:20:17.134Z,4.13
2023-03-26T17:23:28.724Z,2.53
2023-03-26T17:26:19.955Z,2.95
2023-03-26T17:29:02.080Z,2.38
2023-03-26T17:31:42.905Z,2.72
2023-03-26T17:34:31.943Z,3.05
2023-03-26T17:37:03.842Z,2.50
2023-03-26T17:39:40.538Z,3.30
2023-03-26T17:42:16.572Z,2.05
2023-03-26T17:45:03.747Z,2.58
2023-03-26T17:47:52.897Z,2.70
2023-03-26T17:50:30.376Z,1.63
2023-03-26T17:53:02.145Z,1.95
2023-03-26T17:55:32.575Z,2.05
2023-03-26T17:58:03.008Z,2.40
2023-03-26T18:00:30.762Z,3.38
2023-03-26T18:03:03.059Z,2.33
2023-03-26T18:05:31.358Z,3.15
2023-03-26T18:08:39.292Z,1.52
2023-03-26T18:11:12.527Z,2.10
2023-03-26T18:13:45.820Z,2.70
2023-03-26T18:16:17.865Z,2.60
2023-03-26T18:18:54.561Z,3.83
2023-03-26T18:21:24.740Z,3.08
2023-03-26T18:23:52.747Z,2.85
2023-03-26T18:26:31.702Z,3.83
2023-03-26T18:29:24.050Z,5.82
2023-03-26T18:31:57.856Z,6.57
2023-03-26T18:34:29.274Z,3.22
2023-03-26T18:37:03.080Z,4.60
2023-03-26T18:39:30.610Z,3.28
2023-03-26T18:41:58.469Z,4.38
2023-03-26T18:44:27.620Z,5.38
2023-03-26T18:46:55.529Z,3.65
2023-03-26T18:49:26.046Z,3.95
2023-03-26T18:51:57.218Z,4.90
2023-03-26T18:54:30.970Z,4.15
2023-03-26T18:57:15.152Z,3.38
2023-03-26T18:59:45.674Z,3.35
2023-03-26T19:02:14.654Z,4.32
2023-03-26T19:04:46.777Z,2.42
2023-03-26T19:07:19.137Z,5.72
2023-03-26T19:09:46.755Z,6.32
2023-03-26T19:12:23.210Z,10.95
2023-03-26T19:14:55.417Z,5.25
2023-03-26T19:17:26.748Z,5.63
2023-03-26T19:19:57.578Z,3.88
2023-03-26T19:22:25.818Z,6.18
2023-03-26T19:24:59.617Z,6.15
2023-03-26T19:29:55.058Z,5.10
2023-03-26T19:32:34.783Z,8.65
2023-03-26T19:35:04.473Z,3.88
2023-03-26T19:37:32.748Z,4.70
2023-03-26T19:40:07.728Z,6.43
2023-03-26T19:42:43.434Z,5.03
2023-03-26T19:45:34.636Z,6.95
2023-03-26T19:48:14.364Z,7.30
2023-03-26T19:50:46.090Z,4.85
2023-03-26T19:53:18.804Z,5.50
2023-03-26T19:56:13.551Z,5.53
2023-03-26T19:58:42.304Z,6.15
2023-03-26T20:01:23.867Z,6.43
2023-03-26T20:03:55.980Z,6.70
2023-03-26T20:06:33.944Z,8.40
2023-03-26T20:09:05.903Z,8.73
2023-03-26T20:11:38.534Z,11.68
2023-03-26T20:14:20.002Z,12.40
2023-03-26T20:16:47.536Z,11.38
2023-03-26T20:19:15.499Z,10.65
2023-03-26T20:21:44.530Z,7.80
2023-03-26T20:24:17.588Z,8.05
2023-03-26T20:26:48.343Z,9.27
2023-03-26T20:29:16.660Z,6.95
2023-03-26T20:31:44.441Z,11.20
2023-03-26T20:34:22.721Z,8.85
2023-03-26T20:37:01.362Z,8.35
2023-03-26T20:39:29.402Z,11.50
2023-03-26T20:41:57.162Z,9.93
2023-03-26T20:44:26.923Z,15.85
2023-03-26T20:46:56.636Z,13.07
2023-03-26T20:49:25.158Z,11.88
2023-03-26T20:51:52.890Z,42.33
2023-03-26T20:54:23.764Z,34.25
2023-03-26T20:56:52.571Z,36.97
2023-03-26T20:59:27.072Z,25.95
2023-03-26T21:01:57.909Z,17.50
2023-03-26T21:04:26.752Z,13.85
2023-03-26T21:07:00.251Z,14.27
2023-03-26T21:09:35.434Z,11.80
2023-03-26T21:12:09.819Z,13.23
2023-03-26T21:14:41.931Z,10.50
2023-03-26T21:17:20.778Z,14.25
2023-03-26T21:19:49.377Z,13.88
2023-03-26T21:23:15.565Z,17.45
2023-03-26T21:26:06.667Z,21.17
2023-03-26T21:28:47.728Z,12.95
2023-03-26T21:31:22.550Z,16.30
2023-03-26T21:33:51.224Z,27.92
2023-03-26T21:36:23.135Z,16.58
2023-03-26T21:38:51.138Z,13.10
2023-03-26T21:41:24.488Z,11.10
2023-03-26T21:43:51.984Z,10.13
2023-03-26T21:46:20.097Z,10.32
2023-03-26T21:48:48.009Z,7.18
2023-03-26T21:51:19.342Z,7.20
2023-03-26T21:53:47.234Z,8.48
2023-03-26T21:56:33.542Z,7.50
2023-03-26T21:59:38.189Z,9.80
2023-03-26T22:02:33.385Z,7.13
2023-03-26T22:05:20.048Z,9.13
2023-03-26T22:07:53.410Z,6.60
2023-03-26T22:10:21.679Z,10.40
2023-03-26T22:12:49.854Z,10.50
2023-03-26T22:15:18.616Z,9.57
2023-03-26T22:17:54.077Z,10.07
2023-03-26T22:20:25.297Z,10.48
2023-03-26T22:22:53.524Z,12.70
2023-03-26T22:25:22.499Z,8.55
2023-03-26T22:27:51.231Z,10.50
2023-03-26T22:30:20.908Z,13.68
2023-03-26T22:32:49.064Z,12.43
2023-03-26T22:35:16.797Z,12.70
2023-03-26T22:37:44.422Z,13.38
2023-03-26T22:40:15.394Z,16.80
2023-03-26T22:42:42.890Z,16.40
2023-03-26T22:45:11.417Z,15.20
2023-03-26T22:47:39.227Z,14.68
2023-03-26T22:50:08.978Z,14.23
2023-03-26T22:52:37.147Z,13.27
2023-03-26T22:55:05.455Z,17.52
2023-03-26T22:57:33.613Z,16.95
2023-03-26T23:00:15.039Z,15.07
2023-03-26T23:02:45.123Z,15.40
2023-03-26T23:05:14.131Z,11.60
2023-03-26T23:07:42.660Z,11.63
2023-03-26T23:10:11.365Z,18.38
2023-03-26T23:13:28.758Z,13.70
2023-03-26T23:15:57.252Z,18.23
2023-03-26T23:18:25.017Z,16.90
2023-03-26T23:20:55.799Z,16.35
2023-03-26T23:23:34.417Z,14.32
2023-03-26T23:26:04.675Z,18.20
2023-03-26T23:28:33.605Z,20.90
2023-03-26T23:31:04.545Z,21.05
2023-03-26T23:33:35.581Z,19.48
2023-03-26T23:36:07.537Z,18.45
2023-03-26T23:38:43.700Z,15.98
2023-03-26T23:41:15.872Z,17.30
2023-03-26T23:43:53.413Z,17.13
2023-03-26T23:46:34.922Z,20.02
2023-03-26T23:49:03.646Z,20.63
2023-03-26T23:51:32.680Z,12.48
2023-03-26T23:54:00.793Z,15.32
2023-03-26T23:56:29.988Z,10.98
2023-03-26T23:58:59.273Z,10.40
